sensor_id;sensor_type;location;lat;lon;timestamp;P1;durP1;ratioP1;P2;durP2;ratioP2
5754;SDS011;2902;42.130;24.732;2022-10-19T00:01:19;9.77;;;8.30;;
5754;SDS011;2902;42.130;24.732;2022-10-19T00:03:48;8.07;;;7.23;;
5754;SDS011;2902;42.130;24.732;2022-10-19T00:06:17;9.03;;;7.53;;
5754;SDS011;2902;42.130;24.732;2022-10-19T00:08:49;8.00;;;7.27;;
5754;SDS011;2902;42.130;24.732;2022-10-19T00:11:15;10.17;;;7.97;;
5754;SDS011;2902;42.130;24.732;2022-10-19T00:13:43;8.97;;;8.00;;
5754;SDS011;2902;42.130;24.732;2022-10-19T00:16:11;8.23;;;7.43;;
5754;SDS011;2902;42.130;24.732;2022-10-19T00:18:40;8.73;;;7.17;;
5754;SDS011;2902;42.130;24.732;2022-10-19T00:21:09;10.33;;;7.40;;
5754;SDS011;2902;42.130;24.732;2022-10-19T00:23:38;7.03;;;6.43;;
5754;SDS011;2902;42.130;24.732;2022-10-19T00:26:05;10.77;;;7.73;;
5754;SDS011;2902;42.130;24.732;2022-10-19T00:28:32;13.00;;;6.93;;
5754;SDS011;2902;42.130;24.732;2022-10-19T00:31:02;6.30;;;5.80;;
5754;SDS011;2902;42.130;24.732;2022-10-19T00:33:30;7.40;;;6.87;;
5754;SDS011;2902;42.130;24.732;2022-10-19T00:35:56;9.27;;;6.23;;
5754;SDS011;2902;42.130;24.732;2022-10-19T00:38:23;7.50;;;6.13;;
5754;SDS011;2902;42.130;24.732;2022-10-19T00:40:50;7.30;;;6.70;;
5754;SDS011;2902;42.130;24.732;2022-10-19T00:43:17;7.00;;;6.43;;
5754;SDS011;2902;42.130;24.732;2022-10-19T00:45:45;13.20;;;6.93;;
5754;SDS011;2902;42.130;24.732;2022-10-19T00:48:15;14.50;;;6.57;;
5754;SDS011;2902;42.130;24.732;2022-10-19T00:50:45;9.07;;;7.07;;
5754;SDS011;2902;42.130;24.732;2022-10-19T00:53:13;8.33;;;6.87;;
5754;SDS011;2902;42.130;24.732;2022-10-19T00:55:40;7.27;;;6.47;;
5754;SDS011;2902;42.130;24.732;2022-10-19T00:58:07;7.77;;;6.30;;
5754;SDS011;2902;42.130;24.732;2022-10-19T01:00:34;6.80;;;6.30;;
5754;SDS011;2902;42.130;24.732;2022-10-19T01:03:01;8.63;;;6.60;;
5754;SDS011;2902;42.130;24.732;2022-10-19T01:05:30;8.60;;;6.67;;
5754;SDS011;2902;42.130;24.732;2022-10-19T01:07:59;7.47;;;6.70;;
5754;SDS011;2902;42.130;24.732;2022-10-19T01:10:31;7.53;;;6.90;;
5754;SDS011;2902;42.130;24.732;2022-10-19T01:13:12;7.50;;;6.90;;
5754;SDS011;2902;42.130;24.732;2022-10-19T01:15:47;7.80;;;6.37;;
5754;SDS011;2902;42.130;24.732;2022-10-19T01:18:24;7.43;;;6.53;;
5754;SDS011;2902;42.130;24.732;2022-10-19T01:21:09;7.97;;;7.23;;
5754;SDS011;2902;42.130;24.732;2022-10-19T01:24:00;7.13;;;6.53;;
5754;SDS011;2902;42.130;24.732;2022-10-19T01:26:53;7.97;;;6.43;;
5754;SDS011;2902;42.130;24.732;2022-10-19T01:30:09;8.03;;;6.93;;
5754;SDS011;2902;42.130;24.732;2022-10-19T01:35:38;10.73;;;7.37;;
5754;SDS011;2902;42.130;24.732;2022-10-19T01:38:13;10.30;;;7.03;;
5754;SDS011;2902;42.130;24.732;2022-10-19T01:40:51;8.63;;;6.90;;
5754;SDS011;2902;42.130;24.732;2022-10-19T01:43:24;7.97;;;7.13;;
5754;SDS011;2902;42.130;24.732;2022-10-19T01:46:01;7.40;;;6.73;;
5754;SDS011;2902;42.130;24.732;2022-10-19T01:48:34;8.23;;;7.30;;
5754;SDS011;2902;42.130;24.732;2022-10-19T01:51:07;8.13;;;7.33;;
5754;SDS011;2902;42.130;24.732;2022-10-19T01:53:39;9.20;;;6.93;;
5754;SDS011;2902;42.130;24.732;2022-10-19T01:56:09;11.37;;;7.37;;
5754;SDS011;2902;42.130;24.732;2022-10-19T01:58:37;11.67;;;7.67;;
5754;SDS011;2902;42.130;24.732;2022-10-19T02:01:08;7.80;;;7.30;;
5754;SDS011;2902;42.130;24.732;2022-10-19T02:03:38;8.40;;;7.10;;
5754;SDS011;2902;42.130;24.732;2022-10-19T02:06:06;10.43;;;7.17;;
5754;SDS011;2902;42.130;24.732;2022-10-19T02:08:37;7.57;;;7.07;;
5754;SDS011;2902;42.130;24.732;2022-10-19T02:11:08;8.40;;;7.53;;
5754;SDS011;2902;42.130;24.732;2022-10-19T02:13:35;10.47;;;8.23;;
5754;SDS011;2902;42.130;24.732;2022-10-19T02:16:05;10.70;;;8.00;;
5754;SDS011;2902;42.130;24.732;2022-10-19T02:18:38;10.13;;;8.00;;
5754;SDS011;2902;42.130;24.732;2022-10-19T02:21:09;9.80;;;7.67;;
5754;SDS011;2902;42.130;24.732;2022-10-19T02:23:36;8.37;;;7.23;;
5754;SDS011;2902;42.130;24.732;2022-10-19T02:26:03;8.00;;;7.20;;
5754;SDS011;2902;42.130;24.732;2022-10-19T02:28:30;9.50;;;7.67;;
5754;SDS011;2902;42.130;24.732;2022-10-19T02:30:57;9.53;;;7.27;;
5754;SDS011;2902;42.130;24.732;2022-10-19T02:33:25;9.30;;;6.60;;
5754;SDS011;2902;42.130;24.732;2022-10-19T02:35:55;10.97;;;6.80;;
5754;SDS011;2902;42.130;24.732;2022-10-19T02:38:23;7.00;;;6.17;;
5754;SDS011;2902;42.130;24.732;2022-10-19T02:40:53;6.90;;;6.37;;
5754;SDS011;2902;42.130;24.732;2022-10-19T02:43:25;6.47;;;5.97;;
5754;SDS011;2902;42.130;24.732;2022-10-19T02:45:55;6.30;;;5.80;;
5754;SDS011;2902;42.130;24.732;2022-10-19T02:48:26;6.27;;;5.77;;
5754;SDS011;2902;42.130;24.732;2022-10-19T02:50:58;6.03;;;5.47;;
5754;SDS011;2902;42.130;24.732;2022-10-19T02:53:25;6.47;;;5.87;;
5754;SDS011;2902;42.130;24.732;2022-10-19T02:55:52;8.13;;;5.73;;
5754;SDS011;2902;42.130;24.732;2022-10-19T02:58:18;9.33;;;6.00;;
5754;SDS011;2902;42.130;24.732;2022-10-19T03:00:45;5.63;;;5.13;;
5754;SDS011;2902;42.130;24.732;2022-10-19T03:03:12;6.33;;;5.57;;
5754;SDS011;2902;42.130;24.732;2022-10-19T03:05:38;8.77;;;6.00;;
5754;SDS011;2902;42.130;24.732;2022-10-19T03:08:06;5.57;;;4.97;;
5754;SDS011;2902;42.130;24.732;2022-10-19T03:10:33;6.37;;;5.80;;
5754;SDS011;2902;42.130;24.732;2022-10-19T03:13:00;7.40;;;6.00;;
5754;SDS011;2902;42.130;24.732;2022-10-19T03:15:27;6.93;;;5.80;;
5754;SDS011;2902;42.130;24.732;2022-10-19T03:17:54;6.93;;;5.73;;
5754;SDS011;2902;42.130;24.732;2022-10-19T03:20:21;6.73;;;5.87;;
5754;SDS011;2902;42.130;24.732;2022-10-19T03:22:49;9.90;;;6.20;;
5754;SDS011;2902;42.130;24.732;2022-10-19T03:25:17;17.23;;;6.40;;
5754;SDS011;2902;42.130;24.732;2022-10-19T03:27:44;9.60;;;5.80;;
5754;SDS011;2902;42.130;24.732;2022-10-19T03:30:10;7.37;;;5.60;;
5754;SDS011;2902;42.130;24.732;2022-10-19T03:32:37;8.30;;;5.63;;
5754;SDS011;2902;42.130;24.732;2022-10-19T03:35:04;6.43;;;5.87;;
5754;SDS011;2902;42.130;24.732;2022-10-19T03:37:31;6.70;;;6.10;;
5754;SDS011;2902;42.130;24.732;2022-10-19T03:39:58;7.60;;;5.60;;
5754;SDS011;2902;42.130;24.732;2022-10-19T03:42:26;9.43;;;6.23;;
5754;SDS011;2902;42.130;24.732;2022-10-19T03:44:53;6.20;;;5.60;;
5754;SDS011;2902;42.130;24.732;2022-10-19T03:47:20;10.30;;;6.73;;
5754;SDS011;2902;42.130;24.732;2022-10-19T03:49:46;8.50;;;6.10;;
5754;SDS011;2902;42.130;24.732;2022-10-19T03:52:14;14.60;;;6.73;;
5754;SDS011;2902;42.130;24.732;2022-10-19T03:54:41;9.23;;;6.47;;
5754;SDS011;2902;42.130;24.732;2022-10-19T03:57:08;8.37;;;6.40;;
5754;SDS011;2902;42.130;24.732;2022-10-19T03:59:36;7.80;;;6.30;;
5754;SDS011;2902;42.130;24.732;2022-10-19T04:02:03;11.90;;;6.60;;
5754;SDS011;2902;42.130;24.732;2022-10-19T04:04:30;10.90;;;7.07;;
5754;SDS011;2902;42.130;24.732;2022-10-19T04:06:56;12.80;;;6.70;;
5754;SDS011;2902;42.130;24.732;2022-10-19T04:09:23;10.50;;;6.87;;
5754;SDS011;2902;42.130;24.732;2022-10-19T04:11:50;14.73;;;7.63;;
5754;SDS011;2902;42.130;24.732;2022-10-19T04:14:17;12.03;;;7.47;;
5754;SDS011;2902;42.130;24.732;2022-10-19T04:16:47;16.30;;;7.27;;
5754;SDS011;2902;42.130;24.732;2022-10-19T04:19:13;12.63;;;6.93;;
5754;SDS011;2902;42.130;24.732;2022-10-19T04:21:40;23.33;;;7.27;;
5754;SDS011;2902;42.130;24.732;2022-10-19T04:24:09;14.37;;;8.37;;
5754;SDS011;2902;42.130;24.732;2022-10-19T04:26:38;10.10;;;7.27;;
5754;SDS011;2902;42.130;24.732;2022-10-19T04:29:06;19.50;;;8.60;;
5754;SDS011;2902;42.130;24.732;2022-10-19T04:31:33;20.70;;;8.40;;
5754;SDS011;2902;42.130;24.732;2022-10-19T04:34:01;22.80;;;8.30;;
5754;SDS011;2902;42.130;24.732;2022-10-19T04:36:28;27.53;;;9.47;;
5754;SDS011;2902;42.130;24.732;2022-10-19T04:38:56;20.03;;;11.43;;
5754;SDS011;2902;42.130;24.732;2022-10-19T04:41:23;27.53;;;11.23;;
5754;SDS011;2902;42.130;24.732;2022-10-19T04:43:53;10.80;;;8.97;;
5754;SDS011;2902;42.130;24.732;2022-10-19T04:46:21;29.63;;;9.67;;
5754;SDS011;2902;42.130;24.732;2022-10-19T04:48:47;20.37;;;8.37;;
5754;SDS011;2902;42.130;24.732;2022-10-19T04:51:16;29.17;;;8.60;;
5754;SDS011;2902;42.130;24.732;2022-10-19T04:53:43;13.87;;;8.13;;
5754;SDS011;2902;42.130;24.732;2022-10-19T04:56:11;9.33;;;8.63;;
5754;SDS011;2902;42.130;24.732;2022-10-19T04:58:40;13.40;;;8.93;;
5754;SDS011;2902;42.130;24.732;2022-10-19T05:01:07;16.20;;;9.60;;
5754;SDS011;2902;42.130;24.732;2022-10-19T05:03:35;18.83;;;10.37;;
5754;SDS011;2902;42.130;24.732;2022-10-19T05:06:02;44.23;;;22.93;;
5754;SDS011;2902;42.130;24.732;2022-10-19T05:08:31;43.43;;;23.37;;
5754;SDS011;2902;42.130;24.732;2022-10-19T05:11:01;36.80;;;19.60;;
5754;SDS011;2902;42.130;24.732;2022-10-19T05:13:29;31.50;;;18.60;;
5754;SDS011;2902;42.130;24.732;2022-10-19T05:15:57;38.77;;;17.37;;
5754;SDS011;2902;42.130;24.732;2022-10-19T05:18:25;37.73;;;17.13;;
5754;SDS011;2902;42.130;24.732;2022-10-19T05:20:59;33.77;;;15.17;;
5754;SDS011;2902;42.130;24.732;2022-10-19T05:23:26;46.67;;;19.00;;
5754;SDS011;2902;42.130;24.732;2022-10-19T05:25:59;32.53;;;16.23;;
5754;SDS011;2902;42.130;24.732;2022-10-19T05:28:27;19.30;;;12.17;;
5754;SDS011;2902;42.130;24.732;2022-10-19T05:30:54;23.77;;;11.10;;
5754;SDS011;2902;42.130;24.732;2022-10-19T05:33:21;15.07;;;8.70;;
5754;SDS011;2902;42.130;24.732;2022-10-19T05:35:48;14.20;;;7.87;;
5754;SDS011;2902;42.130;24.732;2022-10-19T05:38:14;16.53;;;6.70;;
5754;SDS011;2902;42.130;24.732;2022-10-19T05:40:44;15.40;;;7.37;;
5754;SDS011;2902;42.130;24.732;2022-10-19T05:43:12;18.03;;;8.43;;
5754;SDS011;2902;42.130;24.732;2022-10-19T05:45:39;7.57;;;6.83;;
5754;SDS011;2902;42.130;24.732;2022-10-19T05:48:06;10.80;;;6.40;;
5754;SDS011;2902;42.130;24.732;2022-10-19T05:50:32;28.80;;;8.50;;
5754;SDS011;2902;42.130;24.732;2022-10-19T05:52:59;16.90;;;8.23;;
5754;SDS011;2902;42.130;24.732;2022-10-19T05:55:26;14.13;;;8.30;;
5754;SDS011;2902;42.130;24.732;2022-10-19T05:57:53;11.97;;;6.80;;
5754;SDS011;2902;42.130;24.732;2022-10-19T06:00:21;15.07;;;7.07;;
5754;SDS011;2902;42.130;24.732;2022-10-19T06:02:47;16.20;;;6.50;;
5754;SDS011;2902;42.130;24.732;2022-10-19T06:05:14;12.98;;;6.40;;
5754;SDS011;2902;42.130;24.732;2022-10-19T06:07:41;12.17;;;6.43;;
5754;SDS011;2902;42.130;24.732;2022-10-19T06:10:08;9.63;;;5.33;;
5754;SDS011;2902;42.130;24.732;2022-10-19T06:12:35;14.33;;;7.00;;
5754;SDS011;2902;42.130;24.732;2022-10-19T06:15:02;15.43;;;6.87;;
5754;SDS011;2902;42.130;24.732;2022-10-19T06:17:30;10.60;;;6.77;;
5754;SDS011;2902;42.130;24.732;2022-10-19T06:19:57;14.63;;;5.90;;
5754;SDS011;2902;42.130;24.732;2022-10-19T06:22:24;10.97;;;6.80;;
5754;SDS011;2902;42.130;24.732;2022-10-19T06:24:51;10.93;;;8.67;;
5754;SDS011;2902;42.130;24.732;2022-10-19T06:27:17;12.83;;;6.57;;
5754;SDS011;2902;42.130;24.732;2022-10-19T06:29:44;6.90;;;5.77;;
5754;SDS011;2902;42.130;24.732;2022-10-19T06:32:11;7.53;;;5.57;;
5754;SDS011;2902;42.130;24.732;2022-10-19T06:34:39;8.30;;;5.67;;
5754;SDS011;2902;42.130;24.732;2022-10-19T06:37:05;6.00;;;5.43;;
5754;SDS011;2902;42.130;24.732;2022-10-19T06:39:32;7.27;;;5.40;;
5754;SDS011;2902;42.130;24.732;2022-10-19T06:41:59;8.47;;;5.70;;
5754;SDS011;2902;42.130;24.732;2022-10-19T06:44:25;10.40;;;5.20;;
5754;SDS011;2902;42.130;24.732;2022-10-19T06:46:52;10.93;;;5.53;;
5754;SDS011;2902;42.130;24.732;2022-10-19T06:49:19;10.40;;;6.73;;
5754;SDS011;2902;42.130;24.732;2022-10-19T06:51:47;23.37;;;7.37;;
5754;SDS011;2902;42.130;24.732;2022-10-19T06:54:14;13.33;;;6.30;;
5754;SDS011;2902;42.130;24.732;2022-10-19T06:56:40;15.97;;;6.60;;
5754;SDS011;2902;42.130;24.732;2022-10-19T06:59:08;12.13;;;6.53;;
5754;SDS011;2902;42.130;24.732;2022-10-19T07:01:37;13.87;;;6.23;;
5754;SDS011;2902;42.130;24.732;2022-10-19T07:04:04;10.67;;;6.83;;
5754;SDS011;2902;42.130;24.732;2022-10-19T07:06:31;12.07;;;5.90;;
5754;SDS011;2902;42.130;24.732;2022-10-19T07:08:59;9.30;;;6.43;;
5754;SDS011;2902;42.130;24.732;2022-10-19T07:11:26;12.30;;;6.50;;
5754;SDS011;2902;42.130;24.732;2022-10-19T07:13:53;6.80;;;6.17;;
5754;SDS011;2902;42.130;24.732;2022-10-19T07:16:20;30.93;;;7.37;;
5754;SDS011;2902;42.130;24.732;2022-10-19T07:18:48;9.20;;;5.67;;
5754;SDS011;2902;42.130;24.732;2022-10-19T07:21:16;9.37;;;5.77;;
5754;SDS011;2902;42.130;24.732;2022-10-19T07:23:44;13.30;;;7.07;;
5754;SDS011;2902;42.130;24.732;2022-10-19T07:26:14;20.87;;;14.90;;
5754;SDS011;2902;42.130;24.732;2022-10-19T07:28:43;8.77;;;6.27;;
5754;SDS011;2902;42.130;24.732;2022-10-19T07:31:12;9.27;;;6.20;;
5754;SDS011;2902;42.130;24.732;2022-10-19T07:33:42;15.17;;;6.33;;
5754;SDS011;2902;42.130;24.732;2022-10-19T07:36:09;7.97;;;6.10;;
5754;SDS011;2902;42.130;24.732;2022-10-19T07:38:37;10.33;;;8.33;;
5754;SDS011;2902;42.130;24.732;2022-10-19T07:41:05;18.87;;;8.47;;
5754;SDS011;2902;42.130;24.732;2022-10-19T07:43:35;23.97;;;8.13;;
5754;SDS011;2902;42.130;24.732;2022-10-19T07:46:04;21.67;;;7.33;;
5754;SDS011;2902;42.130;24.732;2022-10-19T07:48:32;9.60;;;6.93;;
5754;SDS011;2902;42.130;24.732;2022-10-19T07:50:59;19.87;;;11.70;;
5754;SDS011;2902;42.130;24.732;2022-10-19T07:53:26;14.90;;;10.07;;
5754;SDS011;2902;42.130;24.732;2022-10-19T07:55:53;22.77;;;14.23;;
5754;SDS011;2902;42.130;24.732;2022-10-19T07:58:20;7.73;;;7.13;;
5754;SDS011;2902;42.130;24.732;2022-10-19T08:00:48;9.77;;;6.53;;
5754;SDS011;2902;42.130;24.732;2022-10-19T08:03:15;21.70;;;9.37;;
5754;SDS011;2902;42.130;24.732;2022-10-19T08:05:42;24.33;;;7.43;;
5754;SDS011;2902;42.130;24.732;2022-10-19T08:08:09;24.33;;;11.40;;
5754;SDS011;2902;42.130;24.732;2022-10-19T08:10:35;21.67;;;10.83;;
5754;SDS011;2902;42.130;24.732;2022-10-19T08:13:02;6.50;;;5.23;;
5754;SDS011;2902;42.130;24.732;2022-10-19T08:15:29;7.93;;;6.80;;
5754;SDS011;2902;42.130;24.732;2022-10-19T08:17:58;9.23;;;6.90;;
5754;SDS011;2902;42.130;24.732;2022-10-19T08:20:25;11.67;;;5.40;;
5754;SDS011;2902;42.130;24.732;2022-10-19T08:22:51;8.60;;;6.90;;
5754;SDS011;2902;42.130;24.732;2022-10-19T08:25:18;7.17;;;5.67;;
5754;SDS011;2902;42.130;24.732;2022-10-19T08:27:45;23.90;;;5.97;;
5754;SDS011;2902;42.130;24.732;2022-10-19T08:30:11;6.60;;;5.37;;
5754;SDS011;2902;42.130;24.732;2022-10-19T08:32:38;7.20;;;5.80;;
5754;SDS011;2902;42.130;24.732;2022-10-19T08:35:07;7.03;;;5.23;;
5754;SDS011;2902;42.130;24.732;2022-10-19T08:37:33;9.07;;;6.53;;
5754;SDS011;2902;42.130;24.732;2022-10-19T08:40:00;15.40;;;5.00;;
5754;SDS011;2902;42.130;24.732;2022-10-19T08:42:28;9.53;;;5.83;;
5754;SDS011;2902;42.130;24.732;2022-10-19T08:48:14;13.70;;;7.17;;
5754;SDS011;2902;42.130;24.732;2022-10-19T08:50:49;10.07;;;6.23;;
5754;SDS011;2902;42.130;24.732;2022-10-19T08:53:17;13.93;;;7.20;;
5754;SDS011;2902;42.130;24.732;2022-10-19T08:55:52;7.77;;;5.70;;
5754;SDS011;2902;42.130;24.732;2022-10-19T08:58:33;15.00;;;6.63;;
5754;SDS011;2902;42.130;24.732;2022-10-19T09:01:14;18.20;;;6.00;;
5754;SDS011;2902;42.130;24.732;2022-10-19T09:03:51;20.40;;;6.47;;
5754;SDS011;2902;42.130;24.732;2022-10-19T09:06:26;8.73;;;5.33;;
5754;SDS011;2902;42.130;24.732;2022-10-19T09:08:57;15.67;;;5.97;;
5754;SDS011;2902;42.130;24.732;2022-10-19T09:11:26;7.63;;;4.83;;
5754;SDS011;2902;42.130;24.732;2022-10-19T09:13:55;10.77;;;5.57;;
5754;SDS011;2902;42.130;24.732;2022-10-19T09:16:26;11.23;;;5.37;;
5754;SDS011;2902;42.130;24.732;2022-10-19T09:18:52;13.70;;;5.67;;
5754;SDS011;2902;42.130;24.732;2022-10-19T09:21:20;8.40;;;5.33;;
5754;SDS011;2902;42.130;24.732;2022-10-19T09:23:51;8.13;;;5.77;;
5754;SDS011;2902;42.130;24.732;2022-10-19T09:26:24;8.93;;;5.27;;
5754;SDS011;2902;42.130;24.732;2022-10-19T09:28:54;8.37;;;4.90;;
5754;SDS011;2902;42.130;24.732;2022-10-19T09:31:27;15.60;;;5.47;;
5754;SDS011;2902;42.130;24.732;2022-10-19T09:33:57;8.30;;;5.90;;
5754;SDS011;2902;42.130;24.732;2022-10-19T09:36:28;12.57;;;5.27;;
5754;SDS011;2902;42.130;24.732;2022-10-19T09:39:02;25.00;;;6.70;;
5754;SDS011;2902;42.130;24.732;2022-10-19T09:41:29;11.63;;;5.27;;
5754;SDS011;2902;42.130;24.732;2022-10-19T09:43:56;8.20;;;5.33;;
5754;SDS011;2902;42.130;24.732;2022-10-19T09:46:26;14.10;;;5.50;;
5754;SDS011;2902;42.130;24.732;2022-10-19T09:48:58;8.00;;;4.47;;
5754;SDS011;2902;42.130;24.732;2022-10-19T09:51:27;12.27;;;5.33;;
5754;SDS011;2902;42.130;24.732;2022-10-19T09:54:20;14.00;;;5.20;;
5754;SDS011;2902;42.130;24.732;2022-10-19T09:56:53;11.90;;;5.50;;
5754;SDS011;2902;42.130;24.732;2022-10-19T09:59:22;15.37;;;4.63;;
5754;SDS011;2902;42.130;24.732;2022-10-19T10:01:58;13.40;;;5.40;;
5754;SDS011;2902;42.130;24.732;2022-10-19T10:04:27;11.20;;;5.00;;
5754;SDS011;2902;42.130;24.732;2022-10-19T10:06:55;10.33;;;5.33;;
5754;SDS011;2902;42.130;24.732;2022-10-19T10:09:25;10.10;;;5.03;;
5754;SDS011;2902;42.130;24.732;2022-10-19T10:11:55;8.13;;;5.00;;
5754;SDS011;2902;42.130;24.732;2022-10-19T10:14:26;9.63;;;5.60;;
5754;SDS011;2902;42.130;24.732;2022-10-19T10:16:55;21.00;;;5.20;;
5754;SDS011;2902;42.130;24.732;2022-10-19T10:19:26;53.57;;;6.83;;
5754;SDS011;2902;42.130;24.732;2022-10-19T10:21:55;19.40;;;5.20;;
5754;SDS011;2902;42.130;24.732;2022-10-19T10:24:25;13.03;;;5.03;;
5754;SDS011;2902;42.130;24.732;2022-10-19T10:26:53;8.87;;;5.20;;
5754;SDS011;2902;42.130;24.732;2022-10-19T10:29:22;15.13;;;5.03;;
5754;SDS011;2902;42.130;24.732;2022-10-19T10:31:51;17.30;;;4.97;;
5754;SDS011;2902;42.130;24.732;2022-10-19T10:34:31;11.47;;;4.77;;
5754;SDS011;2902;42.130;24.732;2022-10-19T10:36:59;12.33;;;5.43;;
5754;SDS011;2902;42.130;24.732;2022-10-19T10:39:29;7.33;;;4.87;;
5754;SDS011;2902;42.130;24.732;2022-10-19T10:41:58;16.83;;;5.47;;
5754;SDS011;2902;42.130;24.732;2022-10-19T10:44:31;16.43;;;5.07;;
5754;SDS011;2902;42.130;24.732;2022-10-19T10:47:01;11.40;;;4.90;;
5754;SDS011;2902;42.130;24.732;2022-10-19T10:49:32;9.90;;;4.00;;
5754;SDS011;2902;42.130;24.732;2022-10-19T10:52:03;5.43;;;3.53;;
5754;SDS011;2902;42.130;24.732;2022-10-19T10:54:33;7.43;;;4.67;;
5754;SDS011;2902;42.130;24.732;2022-10-19T10:57:04;3.93;;;3.73;;
5754;SDS011;2902;42.130;24.732;2022-10-19T10:59:38;11.43;;;4.00;;
5754;SDS011;2902;42.130;24.732;2022-10-19T11:02:14;6.50;;;3.87;;
5754;SDS011;2902;42.130;24.732;2022-10-19T11:04:49;9.00;;;3.43;;
5754;SDS011;2902;42.130;24.732;2022-10-19T11:07:20;7.87;;;3.30;;
5754;SDS011;2902;42.130;24.732;2022-10-19T11:09:51;4.00;;;3.63;;
5754;SDS011;2902;42.130;24.732;2022-10-19T11:12:23;10.43;;;3.23;;
5754;SDS011;2902;42.130;24.732;2022-10-19T11:15:00;8.87;;;3.30;;
5754;SDS011;2902;42.130;24.732;2022-10-19T11:17:32;5.20;;;3.57;;
5754;SDS011;2902;42.130;24.732;2022-10-19T11:20:04;6.00;;;3.13;;
5754;SDS011;2902;42.130;24.732;2022-10-19T11:22:33;10.60;;;3.40;;
5754;SDS011;2902;42.130;24.732;2022-10-19T11:25:14;20.03;;;5.03;;
5754;SDS011;2902;42.130;24.732;2022-10-19T11:27:51;6.37;;;3.27;;
5754;SDS011;2902;42.130;24.732;2022-10-19T11:30:27;13.33;;;3.83;;
5754;SDS011;2902;42.130;24.732;2022-10-19T11:33:00;6.50;;;3.20;;
5754;SDS011;2902;42.130;24.732;2022-10-19T11:35:38;7.00;;;3.80;;
5754;SDS011;2902;42.130;24.732;2022-10-19T11:41:09;4.00;;;3.20;;
5754;SDS011;2902;42.130;24.732;2022-10-19T11:43:48;5.60;;;4.00;;
5754;SDS011;2902;42.130;24.732;2022-10-19T11:46:33;6.07;;;3.60;;
5754;SDS011;2902;42.130;24.732;2022-10-19T11:49:12;18.87;;;5.20;;
5754;SDS011;2902;42.130;24.732;2022-10-19T11:51:49;15.03;;;3.70;;
5754;SDS011;2902;42.130;24.732;2022-10-19T11:54:27;9.20;;;3.30;;
5754;SDS011;2902;42.130;24.732;2022-10-19T11:57:06;14.73;;;4.27;;
5754;SDS011;2902;42.130;24.732;2022-10-19T11:59:51;7.60;;;3.80;;
5754;SDS011;2902;42.130;24.732;2022-10-19T12:02:39;24.03;;;3.93;;
5754;SDS011;2902;42.130;24.732;2022-10-19T12:05:24;15.37;;;3.97;;
5754;SDS011;2902;42.130;24.732;2022-10-19T12:08:00;5.03;;;2.90;;
5754;SDS011;2902;42.130;24.732;2022-10-19T12:10:36;6.13;;;3.53;;
5754;SDS011;2902;42.130;24.732;2022-10-19T12:13:09;7.53;;;3.17;;
5754;SDS011;2902;42.130;24.732;2022-10-19T12:15:40;5.40;;;3.20;;
5754;SDS011;2902;42.130;24.732;2022-10-19T12:18:12;3.00;;;2.80;;
5754;SDS011;2902;42.130;24.732;2022-10-19T12:20:45;10.27;;;3.30;;
5754;SDS011;2902;42.130;24.732;2022-10-19T12:23:18;15.30;;;3.40;;
5754;SDS011;2902;42.130;24.732;2022-10-19T12:25:50;7.77;;;2.87;;
5754;SDS011;2902;42.130;24.732;2022-10-19T12:28:21;4.43;;;3.40;;
5754;SDS011;2902;42.130;24.732;2022-10-19T12:30:52;7.37;;;3.03;;
5754;SDS011;2902;42.130;24.732;2022-10-19T12:33:21;5.07;;;2.93;;
5754;SDS011;2902;42.130;24.732;2022-10-19T12:35:52;4.53;;;3.37;;
5754;SDS011;2902;42.130;24.732;2022-10-19T12:38:28;6.23;;;3.43;;
5754;SDS011;2902;42.130;24.732;2022-10-19T12:41:05;3.20;;;3.00;;
5754;SDS011;2902;42.130;24.732;2022-10-19T12:43:42;29.00;;;4.17;;
5754;SDS011;2902;42.130;24.732;2022-10-19T12:46:17;4.20;;;3.00;;
5754;SDS011;2902;42.130;24.732;2022-10-19T12:51:54;6.27;;;2.73;;
5754;SDS011;2902;42.130;24.732;2022-10-19T12:54:22;8.97;;;3.47;;
5754;SDS011;2902;42.130;24.732;2022-10-19T12:56:51;9.60;;;3.70;;
5754;SDS011;2902;42.130;24.732;2022-10-19T12:59:22;12.10;;;3.50;;
5754;SDS011;2902;42.130;24.732;2022-10-19T13:01:51;4.07;;;2.67;;
5754;SDS011;2902;42.130;24.732;2022-10-19T13:04:19;5.90;;;3.00;;
5754;SDS011;2902;42.130;24.732;2022-10-19T13:06:49;3.37;;;3.07;;
5754;SDS011;2902;42.130;24.732;2022-10-19T13:09:25;3.27;;;2.97;;
5754;SDS011;2902;42.130;24.732;2022-10-19T13:14:56;2.90;;;2.60;;
5754;SDS011;2902;42.130;24.732;2022-10-19T13:17:37;4.37;;;2.53;;
5754;SDS011;2902;42.130;24.732;2022-10-19T13:26:28;30.27;;;6.17;;
5754;SDS011;2902;42.130;24.732;2022-10-19T13:28:57;10.83;;;4.00;;
5754;SDS011;2902;42.130;24.732;2022-10-19T13:31:26;11.17;;;3.27;;
5754;SDS011;2902;42.130;24.732;2022-10-19T13:33:54;8.00;;;3.07;;
5754;SDS011;2902;42.130;24.732;2022-10-19T13:36:22;8.33;;;3.63;;
5754;SDS011;2902;42.130;24.732;2022-10-19T13:44:25;36.50;;;5.23;;
5754;SDS011;2902;42.130;24.732;2022-10-19T13:47:06;18.77;;;3.60;;
5754;SDS011;2902;42.130;24.732;2022-10-19T13:49:59;10.40;;;3.17;;
5754;SDS011;2902;42.130;24.732;2022-10-19T13:52:44;6.80;;;3.17;;
5754;SDS011;2902;42.130;24.732;2022-10-19T14:01:31;17.07;;;3.37;;
5754;SDS011;2902;42.130;24.732;2022-10-19T14:07:04;20.90;;;4.03;;
5754;SDS011;2902;42.130;24.732;2022-10-19T14:12:29;14.73;;;3.37;;
5754;SDS011;2902;42.130;24.732;2022-10-19T14:15:00;51.13;;;5.50;;
5754;SDS011;2902;42.130;24.732;2022-10-19T14:17:44;4.67;;;3.80;;
5754;SDS011;2902;42.130;24.732;2022-10-19T14:20:21;7.57;;;3.50;;
5754;SDS011;2902;42.130;24.732;2022-10-19T14:22:52;5.37;;;3.10;;
5754;SDS011;2902;42.130;24.732;2022-10-19T14:25:19;6.23;;;3.93;;
5754;SDS011;2902;42.130;24.732;2022-10-19T14:27:49;6.77;;;3.60;;
5754;SDS011;2902;42.130;24.732;2022-10-19T14:30:22;9.40;;;4.50;;
5754;SDS011;2902;42.130;24.732;2022-10-19T14:32:50;14.17;;;4.67;;
5754;SDS011;2902;42.130;24.732;2022-10-19T14:35:21;13.13;;;4.67;;
5754;SDS011;2902;42.130;24.732;2022-10-19T14:37:52;36.37;;;5.53;;
5754;SDS011;2902;42.130;24.732;2022-10-19T14:40:23;24.53;;;4.90;;
5754;SDS011;2902;42.130;24.732;2022-10-19T14:42:52;27.03;;;5.67;;
5754;SDS011;2902;42.130;24.732;2022-10-19T14:45:19;23.83;;;5.67;;
5754;SDS011;2902;42.130;24.732;2022-10-19T14:47:51;17.13;;;5.80;;
5754;SDS011;2902;42.130;24.732;2022-10-19T14:50:28;40.87;;;7.17;;
5754;SDS011;2902;42.130;24.732;2022-10-19T14:53:05;38.13;;;6.73;;
5754;SDS011;2902;42.130;24.732;2022-10-19T14:55:47;31.73;;;6.17;;
5754;SDS011;2902;42.130;24.732;2022-10-19T14:58:17;22.93;;;6.33;;
5754;SDS011;2902;42.130;24.732;2022-10-19T15:00:47;18.63;;;4.77;;
5754;SDS011;2902;42.130;24.732;2022-10-19T15:03:17;13.93;;;5.40;;
5754;SDS011;2902;42.130;24.732;2022-10-19T15:05:50;81.43;;;9.10;;
5754;SDS011;2902;42.130;24.732;2022-10-19T15:08:23;52.13;;;8.77;;
5754;SDS011;2902;42.130;24.732;2022-10-19T15:10:57;47.80;;;14.93;;
5754;SDS011;2902;42.130;24.732;2022-10-19T15:13:25;89.63;;;32.13;;
5754;SDS011;2902;42.130;24.732;2022-10-19T15:15:56;101.67;;;38.20;;
5754;SDS011;2902;42.130;24.732;2022-10-19T15:18:24;76.13;;;40.30;;
5754;SDS011;2902;42.130;24.732;2022-10-19T15:21:00;51.17;;;22.90;;
5754;SDS011;2902;42.130;24.732;2022-10-19T15:23:33;42.37;;;12.47;;
5754;SDS011;2902;42.130;24.732;2022-10-19T15:26:11;28.33;;;10.20;;
5754;SDS011;2902;42.130;24.732;2022-10-19T15:28:40;37.00;;;11.10;;
5754;SDS011;2902;42.130;24.732;2022-10-19T15:31:12;37.67;;;11.20;;
5754;SDS011;2902;42.130;24.732;2022-10-19T15:33:42;28.93;;;10.17;;
5754;SDS011;2902;42.130;24.732;2022-10-19T15:36:13;28.60;;;9.63;;
5754;SDS011;2902;42.130;24.732;2022-10-19T15:38:42;42.50;;;11.70;;
5754;SDS011;2902;42.130;24.732;2022-10-19T15:41:13;92.97;;;13.50;;
5754;SDS011;2902;42.130;24.732;2022-10-19T15:43:43;85.87;;;17.07;;
5754;SDS011;2902;42.130;24.732;2022-10-19T15:46:22;52.00;;;12.97;;
5754;SDS011;2902;42.130;24.732;2022-10-19T15:48:50;44.63;;;11.63;;
5754;SDS011;2902;42.130;24.732;2022-10-19T15:54:13;46.27;;;12.27;;